Time;durP1;ratioP1;P1;durP2;ratioP2;P2;SDS_P1;SDS_P2;PMS_P1;PMS_P2;Temp;Humidity;BMP_temperature;BMP_pressure;BME280_temperature;BME280_humidity;BME280_pressure;Samples;Min_cycle;Max_cycle;Signal;HPM_P1;HPM_P2
2023/05/13 00:00:46;;;;;;;4.43;2.37;;;12.90;97.30;;;;;;5029978;28;20569;-87
2023/05/13 00:03:11;;;;;;;3.63;2.83;;;12.80;97.30;;;;;;5012139;28;20617;-88
2023/05/13 00:05:37;;;;;;;3.43;2.30;;;12.80;97.30;;;;;;5012182;28;20180;-88
2023/05/13 00:08:06;;;;;;;3.10;2.93;;;12.70;97.30;;;;;;5010485;28;20259;-88
2023/05/13 00:10:32;;;;;;;3.70;3.50;;;12.70;97.30;;;;;;5029486;28;20192;-88
2023/05/13 00:12:58;;;;;;;4.97;4.20;;;12.60;97.30;;;;;;5012051;28;20458;-89
2023/05/13 00:15:23;;;;;;;3.60;2.70;;;12.60;97.30;;;;;;5011937;28;20467;-87
2023/05/13 00:17:49;;;;;;;3.70;3.53;;;12.50;97.30;;;;;;5010288;28;20173;-88
2023/05/13 00:20:14;;;;;;;3.20;3.00;;;12.50;97.30;;;;;;5012032;28;20627;-89
2023/05/13 00:22:40;;;;;;;4.90;4.60;;;12.40;97.30;;;;;;5029966;28;20222;-88
2023/05/13 00:25:06;;;;;;;7.70;4.17;;;12.30;97.30;;;;;;5011563;28;20250;-88
2023/05/13 00:27:34;;;;;;;3.83;3.27;;;12.30;97.30;;;;;;5010133;28;20655;-88
2023/05/13 00:30:00;;;;;;;2.73;2.53;;;12.20;97.30;;;;;;5003438;28;20619;-88
2023/05/13 00:32:25;;;;;;;2.83;2.47;;;12.20;97.30;;;;;;5011969;28;20412;-88
2023/05/13 00:34:51;;;;;;;4.50;2.90;;;12.20;97.30;;;;;;5011421;28;20201;-89
2023/05/13 00:37:16;;;;;;;7.20;3.37;;;12.10;97.30;;;;;;5011027;28;20177;-88
2023/05/13 00:39:42;;;;;;;2.07;1.93;;;12.00;97.30;;;;;;5033482;28;20459;-88
2023/05/13 00:42:10;;;;;;;3.60;2.47;;;11.90;97.30;;;;;;5015193;28;20177;-89
2023/05/13 00:44:35;;;;;;;4.23;2.77;;;11.90;97.30;;;;;;5015182;28;20662;-89
2023/05/13 00:47:01;;;;;;;6.13;3.17;;;11.80;97.30;;;;;;5013713;28;20415;-87
2023/05/13 00:49:27;;;;;;;2.77;2.57;;;11.80;97.30;;;;;;5007178;28;20453;-87
2023/05/13 00:51:54;;;;;;;4.33;4.03;;;11.70;97.30;;;;;;5014200;28;20184;-88
2023/05/13 00:54:19;;;;;;;3.20;2.50;;;11.70;97.30;;;;;;5032481;28;20192;-89
2023/05/13 00:56:45;;;;;;;5.80;4.63;;;11.70;97.30;;;;;;5004238;28;20435;-88
2023/05/13 00:59:10;;;;;;;6.90;3.20;;;11.70;97.30;;;;;;5014564;28;20287;-88
2023/05/13 01:01:58;;;;;;;6.83;2.80;;;11.60;97.30;;;;;;5015052;28;20208;-88
2023/05/13 01:04:43;;;;;;;8.63;4.00;;;11.60;97.30;;;;;;5008610;28;20670;-88
2023/05/13 01:07:33;;;;;;;3.57;3.00;;;11.60;97.30;;;;;;5013227;28;20411;-88
2023/05/13 01:10:05;;;;;;;3.10;2.90;;;11.50;97.30;;;;;;5014551;28;20538;-89
2023/05/13 01:12:42;;;;;;;2.33;2.13;;;11.50;97.30;;;;;;5014523;28;20431;-88
2023/05/13 01:15:11;;;;;;;5.17;3.97;;;11.50;97.30;;;;;;5014823;28;20592;-88
2023/05/13 01:17:41;;;;;;;4.80;2.80;;;11.50;97.30;;;;;;5031133;28;20937;-88
2023/05/13 01:20:07;;;;;;;2.70;2.50;;;11.50;97.30;;;;;;5014792;28;20490;-88
2023/05/13 01:22:33;;;;;;;4.33;3.07;;;11.60;97.30;;;;;;5014803;28;20423;-88
2023/05/13 01:24:58;;;;;;;3.70;3.47;;;11.60;97.30;;;;;;5014623;28;20419;-87
2023/05/13 01:27:24;;;;;;;3.10;2.27;;;11.60;97.30;;;;;;5012864;28;20215;-88
2023/05/13 01:29:51;;;;;;;6.13;3.73;;;11.60;97.30;;;;;;5014281;28;20235;-88
2023/05/13 01:32:17;;;;;;;3.23;2.80;;;11.60;97.30;;;;;;5032144;28;20921;-88
2023/05/13 01:34:43;;;;;;;4.70;3.20;;;11.50;97.30;;;;;;5032243;28;20996;-88
2023/05/13 01:37:09;;;;;;;3.03;2.67;;;11.50;97.30;;;;;;5012784;28;20966;-88
2023/05/13 01:39:37;;;;;;;3.03;2.73;;;11.50;97.30;;;;;;5032247;28;20565;-88
2023/05/13 01:42:03;;;;;;;3.53;2.40;;;11.50;97.30;;;;;;5014669;28;20211;-88
2023/05/13 01:44:28;;;;;;;4.33;2.10;;;11.50;97.30;;;;;;5014487;28;20631;-88
2023/05/13 01:46:54;;;;;;;3.83;2.80;;;11.50;97.30;;;;;;5012888;28;20411;-88
2023/05/13 01:49:19;;;;;;;5.03;3.80;;;11.50;97.30;;;;;;5013164;28;20247;-87
2023/05/13 01:51:45;;;;;;;4.20;3.70;;;11.50;97.30;;;;;;5014806;28;20184;-90
2023/05/13 01:54:10;;;;;;;5.00;4.70;;;11.50;97.30;;;;;;5014379;28;20216;-88
2023/05/13 01:56:37;;;;;;;5.70;3.57;;;11.50;97.30;;;;;;5004443;28;20647;-89
2023/05/13 01:59:03;;;;;;;11.40;3.37;;;11.50;97.30;;;;;;5014150;28;20196;-88
2023/05/13 02:01:28;;;;;;;5.30;4.57;;;11.50;97.30;;;;;;5032057;28;20412;-88
2023/05/13 02:03:58;;;;;;;4.40;4.13;;;11.50;97.30;;;;;;5013756;28;20176;-89
2023/05/13 02:06:24;;;;;;;3.73;3.00;;;11.40;97.30;;;;;;5012639;28;20267;-89
2023/05/13 02:08:49;;;;;;;3.90;3.20;;;11.40;97.30;;;;;;5031543;28;20593;-88
2023/05/13 02:11:15;;;;;;;5.00;3.57;;;11.40;97.30;;;;;;5013654;28;20674;-90
2023/05/13 02:13:41;;;;;;;5.00;4.00;;;11.40;97.30;;;;;;5014083;28;20281;-88
2023/05/13 02:16:06;;;;;;;6.60;3.93;;;11.40;97.30;;;;;;5011193;28;20935;-90
2023/05/13 02:18:32;;;;;;;4.87;4.63;;;11.30;97.30;;;;;;5019484;28;20193;-88
2023/05/13 02:20:57;;;;;;;6.40;4.37;;;11.30;97.30;;;;;;5013324;28;20263;-89
2023/05/13 02:23:23;;;;;;;4.40;3.47;;;11.30;97.30;;;;;;5012002;28;20193;-88
2023/05/13 02:25:48;;;;;;;6.07;4.40;;;11.20;97.30;;;;;;5031016;28;20256;-89
2023/05/13 02:28:13;;;;;;;3.73;3.07;;;11.20;97.30;;;;;;5029751;28;20248;-89
2023/05/13 02:30:39;;;;;;;3.87;3.37;;;11.10;97.30;;;;;;5013375;28;20193;-89
2023/05/13 02:33:05;;;;;;;3.27;3.07;;;11.10;97.30;;;;;;5004704;28;20165;-87
2023/05/13 02:35:31;;;;;;;4.40;3.60;;;11.10;97.30;;;;;;5013222;28;20227;-88
2023/05/13 02:37:57;;;;;;;4.43;4.07;;;11.10;97.30;;;;;;5011503;28;20929;-89
2023/05/13 02:40:22;;;;;;;3.90;3.00;;;11.10;97.30;;;;;;5013150;28;20192;-89
2023/05/13 02:42:48;;;;;;;4.07;3.07;;;11.10;97.30;;;;;;5012939;28;20203;-89
2023/05/13 02:45:13;;;;;;;7.27;5.37;;;11.10;97.30;;;;;;5030940;28;20219;-88
2023/05/13 02:47:39;;;;;;;2.80;2.60;;;11.00;97.30;;;;;;5029129;28;20180;-88
2023/05/13 02:50:06;;;;;;;4.20;3.60;;;11.00;97.30;;;;;;5012613;28;20277;-89
2023/05/13 02:52:34;;;;;;;4.63;3.90;;;11.00;97.30;;;;;;5012816;28;20188;-88
2023/05/13 02:55:00;;;;;;;8.03;4.10;;;10.90;97.30;;;;;;5030861;28;20981;-89
2023/05/13 02:57:26;;;;;;;6.80;3.70;;;10.90;97.30;;;;;;5043045;28;20477;-88
2023/05/13 02:59:52;;;;;;;3.07;2.87;;;10.90;97.30;;;;;;5012692;28;20825;-88
2023/05/13 03:02:17;;;;;;;2.30;2.10;;;10.90;97.30;;;;;;5030259;28;20195;-89
2023/05/13 03:04:43;;;;;;;2.47;2.27;;;10.80;97.30;;;;;;5013134;28;20189;-88
2023/05/13 03:07:08;;;;;;;3.83;2.90;;;10.80;97.30;;;;;;5011451;28;20567;-88
2023/05/13 03:09:37;;;;;;;4.77;4.07;;;10.80;97.30;;;;;;5012810;28;20281;-88
2023/05/13 03:12:04;;;;;;;9.90;3.77;;;10.70;97.30;;;;;;5012846;28;20253;-89
2023/05/13 03:14:30;;;;;;;4.10;2.50;;;10.70;97.30;;;;;;5012923;28;20557;-88
2023/05/13 03:16:55;;;;;;;2.53;2.33;;;10.70;97.30;;;;;;5010950;28;20904;-87
2023/05/13 03:19:21;;;;;;;2.87;2.67;;;10.60;97.30;;;;;;5012842;28;20212;-88
2023/05/13 03:21:46;;;;;;;2.47;2.27;;;10.60;97.30;;;;;;5012571;28;20196;-87
2023/05/13 03:24:12;;;;;;;2.33;2.13;;;10.60;97.30;;;;;;5012685;28;20192;-88
2023/05/13 03:26:37;;;;;;;3.50;3.13;;;10.50;97.30;;;;;;5011175;28;20616;-88
2023/05/13 03:29:03;;;;;;;3.00;2.47;;;10.50;97.30;;;;;;5012309;28;20227;-88
2023/05/13 03:31:28;;;;;;;2.80;2.60;;;10.40;97.30;;;;;;5029952;28;20278;-89
2023/05/13 03:33:54;;;;;;;3.10;2.43;;;10.40;97.30;;;;;;5012416;28;20270;-88
2023/05/13 03:36:19;;;;;;;5.57;3.57;;;10.40;97.30;;;;;;5010011;28;20234;-88
2023/05/13 03:38:45;;;;;;;2.93;2.73;;;10.30;97.30;;;;;;5011354;28;20193;-88
2023/05/13 03:41:10;;;;;;;5.97;3.60;;;10.30;97.30;;;;;;5010885;28;20682;-88
2023/05/13 03:43:36;;;;;;;3.57;3.03;;;10.20;97.30;;;;;;5011721;28;20250;-88
2023/05/13 03:46:01;;;;;;;3.53;3.33;;;10.20;97.30;;;;;;5010650;28;20580;-88
2023/05/13 03:48:27;;;;;;;3.80;3.50;;;10.10;97.30;;;;;;5012308;28;20185;-88
2023/05/13 03:50:52;;;;;;;4.23;4.00;;;10.10;97.30;;;;;;5029909;28;20224;-88
2023/05/13 03:53:18;;;;;;;3.00;2.80;;;10.10;97.30;;;;;;5011927;28;20191;-88
2023/05/13 03:55:44;;;;;;;6.70;3.70;;;10.10;97.30;;;;;;5012454;28;20223;-88
2023/05/13 03:58:13;;;;;;;3.30;2.87;;;10.10;97.30;;;;;;5010608;28;20177;-88
2023/05/13 04:00:38;;;;;;;4.20;2.90;;;10.10;97.30;;;;;;5011910;28;21111;-88
2023/05/13 04:03:04;;;;;;;3.07;2.40;;;10.10;97.30;;;;;;5011804;28;20494;-89
2023/05/13 04:05:29;;;;;;;2.83;1.87;;;10.10;97.30;;;;;;5030110;28;20651;-88
2023/05/13 04:07:55;;;;;;;3.40;3.20;;;10.10;97.30;;;;;;5010722;28;20200;-88
2023/05/13 04:10:20;;;;;;;6.13;3.67;;;10.20;97.30;;;;;;5029808;28;20200;-90
2023/05/13 04:12:45;;;;;;;2.10;1.90;;;10.20;97.30;;;;;;5013505;28;20184;-88
2023/05/13 04:15:11;;;;;;;2.40;2.20;;;10.20;97.30;;;;;;5016624;28;20625;-87
2023/05/13 04:17:36;;;;;;;5.80;4.27;;;10.30;97.30;;;;;;5015667;28;20189;-91
2023/05/13 04:20:02;;;;;;;2.17;2.00;;;10.30;97.30;;;;;;5017283;28;20208;-88
2023/05/13 04:22:28;;;;;;;4.03;3.43;;;10.30;97.30;;;;;;5017577;28;20184;-89
2023/05/13 04:24:55;;;;;;;3.77;3.57;;;10.40;97.30;;;;;;5028900;28;20180;-90
2023/05/13 04:27:22;;;;;;;3.40;3.20;;;10.30;97.30;;;;;;5027681;28;20180;-87
2023/05/13 04:29:48;;;;;;;9.57;4.20;;;10.30;97.30;;;;;;5015993;28;20475;-87
2023/05/13 04:32:16;;;;;;;3.30;3.10;;;10.30;97.30;;;;;;5015643;28;20423;-88
2023/05/13 04:34:42;;;;;;;4.50;2.93;;;10.40;97.30;;;;;;5015402;28;20489;-88
2023/05/13 04:37:07;;;;;;;9.70;4.23;;;10.40;97.30;;;;;;5031571;28;20447;-89
2023/05/13 04:39:33;;;;;;;3.73;3.13;;;10.50;97.30;;;;;;5015240;28;20243;-88
2023/05/13 04:41:58;;;;;;;8.63;4.70;;;10.50;97.30;;;;;;5015750;28;20177;-86
2023/05/13 04:44:24;;;;;;;3.53;3.33;;;10.60;97.30;;;;;;5033304;28;20180;-88
2023/05/13 04:46:49;;;;;;;2.33;2.20;;;10.60;97.30;;;;;;5014017;28;20177;-88
2023/05/13 04:51:44;;;;;;;7.47;4.33;;;10.80;97.30;;;;;;5031300;28;20208;-88
2023/05/13 04:54:10;;;;;;;7.07;3.27;;;10.80;97.30;;;;;;5015313;28;20454;-88
2023/05/13 04:56:35;;;;;;;3.37;3.17;;;10.80;97.30;;;;;;5012993;28;20264;-88
2023/05/13 04:59:01;;;;;;;8.90;4.00;;;10.80;97.30;;;;;;5013864;28;20226;-88
2023/05/13 05:01:26;;;;;;;7.30;5.17;;;10.80;97.30;;;;;;5014415;28;20676;-90
2023/05/13 05:03:52;;;;;;;3.93;3.00;;;10.90;97.30;;;;;;5014502;28;20199;-88
2023/05/13 05:06:17;;;;;;;3.23;3.00;;;10.90;97.30;;;;;;5013547;28;20189;-88
2023/05/13 05:08:43;;;;;;;4.20;2.80;;;10.90;97.30;;;;;;5015058;28;20185;-90
2023/05/13 05:11:09;;;;;;;3.13;2.93;;;11.00;97.30;;;;;;5014870;28;20176;-88
2023/05/13 05:13:34;;;;;;;3.47;2.40;;;11.10;97.30;;;;;;5014698;28;20307;-88
2023/05/13 05:16:00;;;;;;;4.57;3.67;;;11.10;97.30;;;;;;5014479;28;20962;-88
2023/05/13 05:18:26;;;;;;;2.70;2.50;;;11.20;97.30;;;;;;5014671;28;20315;-89
2023/05/13 05:20:51;;;;;;;4.83;3.37;;;11.30;97.30;;;;;;5014794;28;20197;-88
2023/05/13 05:23:16;;;;;;;5.90;3.90;;;11.30;97.30;;;;;;5014094;28;20365;-88
2023/05/13 05:25:42;;;;;;;4.43;3.33;;;11.40;97.30;;;;;;5014788;28;20172;-88
2023/05/13 05:28:08;;;;;;;4.70;3.57;;;11.50;97.30;;;;;;5012643;28;20803;-88
2023/05/13 05:30:38;;;;;;;8.17;3.20;;;11.60;97.30;;;;;;5014422;28;20203;-89
2023/05/13 05:33:05;;;;;;;17.43;6.47;;;11.60;97.30;;;;;;5014601;28;20211;-88
2023/05/13 05:35:32;;;;;;;4.47;3.13;;;11.70;97.30;;;;;;5011204;28;20463;-89
2023/05/13 05:37:57;;;;;;;2.60;2.40;;;11.80;97.30;;;;;;5012828;28;20419;-89
2023/05/13 05:40:23;;;;;;;4.33;4.03;;;11.90;97.30;;;;;;5014182;28;20438;-89
2023/05/13 05:42:48;;;;;;;8.00;4.00;;;11.90;97.30;;;;;;5014578;28;20183;-88
2023/05/13 05:45:14;;;;;;;3.83;3.00;;;12.00;97.30;;;;;;5014051;28;20184;-89
2023/05/13 05:47:39;;;;;;;17.77;3.40;;;12.10;97.30;;;;;;5012730;28;20203;-88
2023/05/13 05:50:05;;;;;;;3.43;2.53;;;12.20;97.30;;;;;;5019284;28;20216;-89
2023/05/13 05:52:30;;;;;;;2.70;2.53;;;12.20;97.30;;;;;;5026586;28;20253;-88
2023/05/13 05:54:56;;;;;;;5.03;4.73;;;12.30;97.30;;;;;;5033650;28;20682;-88
2023/05/13 05:57:21;;;;;;;2.40;2.20;;;12.40;97.30;;;;;;5031993;28;20184;-90
2023/05/13 05:59:47;;;;;;;2.60;2.40;;;12.50;97.30;;;;;;5033758;28;20235;-88
2023/05/13 06:02:12;;;;;;;4.80;3.70;;;12.60;97.30;;;;;;5051830;28;20531;-89
2023/05/13 06:04:40;;;;;;;2.90;2.70;;;12.70;97.30;;;;;;5033711;28;20263;-89
2023/05/13 06:07:06;;;;;;;4.30;3.00;;;12.80;97.30;;;;;;5031929;28;20179;-89
2023/05/13 06:09:31;;;;;;;3.37;2.70;;;12.90;97.30;;;;;;5024404;28;20952;-88
2023/05/13 06:11:57;;;;;;;6.70;4.97;;;13.00;97.30;;;;;;5051609;28;20190;-89
2023/05/13 06:14:22;;;;;;;2.63;2.40;;;13.10;97.30;;;;;;5049700;28;20670;-89
2023/05/13 06:16:48;;;;;;;6.73;4.13;;;13.10;97.30;;;;;;5049868;28;20218;-88
2023/05/13 06:19:13;;;;;;;4.40;3.20;;;13.20;97.30;;;;;;5051075;28;20647;-88
2023/05/13 06:21:39;;;;;;;4.80;4.50;;;13.30;97.30;;;;;;5051661;28;20180;-90
2023/05/13 06:24:04;;;;;;;5.73;4.20;;;13.40;97.30;;;;;;5033322;28;20210;-88
2023/05/13 06:26:30;;;;;;;3.33;2.43;;;13.50;97.30;;;;;;5031497;28;20240;-89
2023/05/13 06:28:56;;;;;;;3.93;3.80;;;13.60;97.30;;;;;;5033053;28;20215;-88
2023/05/13 06:31:21;;;;;;;3.83;2.50;;;13.70;97.30;;;;;;5033314;28;20446;-89
2023/05/13 06:33:47;;;;;;;4.63;3.90;;;13.80;97.30;;;;;;5033214;28;20640;-88
2023/05/13 06:36:13;;;;;;;4.63;3.07;;;14.00;97.30;;;;;;5030949;28;20185;-88
2023/05/13 06:38:38;;;;;;;3.10;2.53;;;14.00;97.30;;;;;;5033254;28;20271;-89
2023/05/13 06:41:05;;;;;;;4.23;2.47;;;14.10;97.30;;;;;;5032994;28;20192;-86
2023/05/13 06:43:30;;;;;;;4.60;4.00;;;14.20;97.30;;;;;;5033024;28;20176;-89
2023/05/13 06:45:56;;;;;;;3.67;3.43;;;14.40;97.30;;;;;;5032470;28;20945;-88
2023/05/13 06:48:21;;;;;;;3.60;3.40;;;14.40;97.30;;;;;;5031654;28;20183;-88
2023/05/13 06:50:48;;;;;;;4.73;3.20;;;14.50;97.30;;;;;;5032361;28;20311;-88
2023/05/13 06:53:14;;;;;;;4.03;3.50;;;14.60;97.30;;;;;;5032731;28;20306;-89
2023/05/13 06:55:42;;;;;;;4.03;3.83;;;14.70;97.30;;;;;;5032476;28;20537;-88
2023/05/13 06:58:08;;;;;;;4.13;3.90;;;14.80;97.30;;;;;;5030898;28;20218;-89
2023/05/13 07:00:39;;;;;;;5.60;4.23;;;14.90;97.30;;;;;;5050395;28;20445;-88
2023/05/13 07:03:05;;;;;;;2.70;2.50;;;15.00;97.30;;;;;;5032821;28;20430;-88
2023/05/13 07:05:31;;;;;;;8.17;4.73;;;15.00;97.30;;;;;;5032563;28;20694;-89
2023/05/13 07:07:57;;;;;;;2.90;2.60;;;15.10;97.30;;;;;;5031021;28;20429;-89
2023/05/13 07:10:23;;;;;;;2.17;2.07;;;15.20;97.30;;;;;;5032325;28;20835;-88
2023/05/13 07:12:48;;;;;;;3.03;2.63;;;15.30;97.30;;;;;;5032729;28;20562;-89
2023/05/13 07:15:15;;;;;;;4.23;3.30;;;15.50;97.30;;;;;;5032349;28;20655;-88
2023/05/13 07:17:41;;;;;;;5.10;2.73;;;15.60;97.30;;;;;;5030877;28;20530;-88
2023/05/13 07:20:07;;;;;;;3.93;2.20;;;15.70;97.30;;;;;;5032243;28;20508;-87
2023/05/13 07:22:33;;;;;;;1.97;1.87;;;15.90;97.30;;;;;;5028151;28;20177;-88
2023/05/13 07:24:59;;;;;;;2.07;1.93;;;16.00;97.30;;;;;;5027246;28;20480;-88
2023/05/13 07:27:25;;;;;;;1.50;1.40;;;16.00;97.30;;;;;;5030059;28;20434;-88
2023/05/13 07:29:50;;;;;;;2.70;2.37;;;16.10;97.30;;;;;;5031392;28;20204;-89
2023/05/13 07:32:16;;;;;;;3.90;1.93;;;16.20;97.30;;;;;;5032161;28;20184;-88
2023/05/13 07:34:41;;;;;;;3.03;2.50;;;16.30;96.70;;;;;;5032339;28;20583;-88
2023/05/13 07:37:07;;;;;;;2.37;2.23;;;16.30;95.90;;;;;;5030854;28;20577;-87
2023/05/13 07:39:32;;;;;;;2.23;2.07;;;16.50;95.40;;;;;;5032100;28;20757;-89
2023/05/13 07:41:58;;;;;;;3.00;2.03;;;16.50;94.10;;;;;;5032508;28;20175;-88
2023/05/13 07:44:23;;;;;;;1.43;1.33;;;16.60;93.50;;;;;;5032292;28;20179;-87
2023/05/13 07:46:52;;;;;;;2.37;2.17;;;16.70;93.60;;;;;;5032569;28;20180;-90
2023/05/13 07:49:17;;;;;;;4.60;2.27;;;16.70;92.90;;;;;;5036329;28;20204;-89
2023/05/13 07:51:43;;;;;;;3.53;1.83;;;16.80;93.60;;;;;;5036573;28;20461;-88
2023/05/13 07:54:09;;;;;;;1.53;1.47;;;16.90;92.80;;;;;;5028544;28;20298;-89
2023/05/13 07:56:34;;;;;;;2.67;1.97;;;16.90;92.00;;;;;;5056516;28;20183;-91
2023/05/13 07:59:00;;;;;;;1.70;1.60;;;17.00;92.20;;;;;;5080158;28;20290;-91
2023/05/13 08:01:26;;;;;;;2.63;1.73;;;17.10;92.00;;;;;;5061809;28;20175;-88
2023/05/13 08:03:51;;;;;;;4.03;3.27;;;17.10;92.20;;;;;;5037114;28;20257;-88
2023/05/13 08:06:19;;;;;;;6.53;4.07;;;17.20;92.00;;;;;;5034436;28;20752;-89
2023/05/13 08:08:44;;;;;;;1.97;1.90;;;17.30;91.90;;;;;;5036035;28;20700;-85
2023/05/13 08:11:10;;;;;;;3.03;2.40;;;17.40;91.90;;;;;;5035993;28;20414;-88
2023/05/13 08:13:35;;;;;;;2.30;1.70;;;17.40;91.90;;;;;;5053952;28;20609;-88
2023/05/13 08:16:02;;;;;;;2.00;1.90;;;17.50;92.10;;;;;;5028222;28;20180;-89
2023/05/13 08:18:28;;;;;;;2.13;1.97;;;17.60;92.20;;;;;;5035864;28;20176;-89
2023/05/13 08:20:53;;;;;;;2.23;2.03;;;17.60;91.30;;;;;;5036186;28;20445;-88
2023/05/13 08:23:19;;;;;;;2.27;2.07;;;17.70;91.80;;;;;;5035753;28;20413;-89
2023/05/13 08:25:44;;;;;;;1.80;1.70;;;17.80;91.90;;;;;;5035968;28;20176;-88
2023/05/13 08:28:10;;;;;;;3.13;2.80;;;17.80;91.40;;;;;;5034337;28;20179;-88
2023/05/13 08:30:36;;;;;;;1.50;1.40;;;18.00;91.80;;;;;;5035502;28;20210;-88
2023/05/13 08:33:01;;;;;;;2.20;1.83;;;18.10;91.30;;;;;;5035776;28;20191;-90
2023/05/13 08:35:27;;;;;;;1.77;1.67;;;18.10;90.10;;;;;;5032224;28;20227;-88
2023/05/13 08:37:52;;;;;;;2.17;1.80;;;18.10;89.50;;;;;;5033050;28;20183;-89
2023/05/13 08:40:18;;;;;;;2.07;1.93;;;18.10;89.60;;;;;;5034196;28;20285;-89
2023/05/13 08:42:46;;;;;;;1.90;1.80;;;18.20;90.20;;;;;;5026797;28;20172;-88
2023/05/13 08:45:13;;;;;;;3.03;2.60;;;18.20;89.40;;;;;;5034122;28;20184;-90
2023/05/13 08:47:48;;;;;;;2.47;2.27;;;18.20;90.40;;;;;;5033117;28;20457;-89
2023/05/13 08:50:14;;;;;;;3.70;2.70;;;18.30;90.20;;;;;;5034903;28;20481;-90
2023/05/13 08:52:42;;;;;;;4.67;2.10;;;18.50;90.60;;;;;;5048109;28;20418;-88
2023/05/13 08:55:08;;;;;;;2.30;2.13;;;18.50;89.30;;;;;;5053703;28;20480;-89
2023/05/13 08:57:35;;;;;;;2.43;1.83;;;18.70;89.30;;;;;;5070869;28;20414;-90
2023/05/13 09:00:02;;;;;;;2.80;2.20;;;18.70;89.20;;;;;;5044641;28;20434;-88
2023/05/13 09:02:28;;;;;;;5.73;3.27;;;18.80;89.90;;;;;;5034739;28;20418;-88
2023/05/13 09:04:55;;;;;;;2.33;2.13;;;18.90;89.80;;;;;;5035122;28;20429;-89
2023/05/13 09:07:20;;;;;;;2.80;2.60;;;19.00;89.70;;;;;;5033405;28;20429;-89
2023/05/13 09:09:46;;;;;;;3.13;1.90;;;19.10;90.90;;;;;;5034836;28;20533;-88
2023/05/13 09:12:11;;;;;;;8.20;3.33;;;19.30;90.40;;;;;;5034684;28;20179;-87
2023/05/13 09:14:37;;;;;;;3.07;2.50;;;19.50;89.80;;;;;;5034473;28;20655;-88
2023/05/13 09:17:03;;;;;;;3.33;2.17;;;19.60;90.60;;;;;;5051119;28;20176;-89
2023/05/13 09:19:32;;;;;;;4.57;2.60;;;19.70;88.80;;;;;;5032186;28;20430;-88
2023/05/13 09:22:00;;;;;;;4.40;2.83;;;19.80;87.50;;;;;;5029589;28;20714;-89
2023/05/13 09:24:32;;;;;;;2.50;2.33;;;19.80;86.60;;;;;;5034799;28;20426;-89
2023/05/13 09:27:00;;;;;;;2.60;2.40;;;19.80;86.80;;;;;;5033018;28;20434;-88
2023/05/13 09:29:32;;;;;;;2.40;2.13;;;19.80;87.50;;;;;;5034240;28;20439;-89
2023/05/13 09:32:00;;;;;;;2.57;1.90;;;19.80;85.40;;;;;;5028525;28;20654;-88
2023/05/13 09:34:33;;;;;;;6.40;2.30;;;19.90;86.90;;;;;;5024632;28;20569;-88
2023/05/13 09:37:18;;;;;;;2.90;2.70;;;20.00;84.80;;;;;;5032930;28;20419;-88
2023/05/13 09:39:45;;;;;;;2.30;2.10;;;20.00;84.10;;;;;;5027121;28;20447;-88
2023/05/13 09:42:18;;;;;;;3.67;1.97;;;20.00;84.00;;;;;;5034369;28;20444;-88
2023/05/13 09:44:44;;;;;;;2.07;1.93;;;20.10;84.40;;;;;;5034175;28;20512;-89
2023/05/13 09:47:12;;;;;;;3.13;2.30;;;20.20;82.60;;;;;;5032492;28;20504;-88
2023/05/13 09:49:39;;;;;;;4.87;2.50;;;20.20;82.80;;;;;;5025746;28;20438;-89
2023/05/13 09:52:08;;;;;;;2.07;1.77;;;20.20;82.40;;;;;;5034023;28;20434;-89
2023/05/13 09:54:40;;;;;;;2.60;2.40;;;20.10;83.70;;;;;;5038920;28;20459;-88
2023/05/13 09:57:21;;;;;;;3.37;2.70;;;20.20;83.00;;;;;;5027305;28;20422;-87
2023/05/13 09:59:49;;;;;;;2.63;2.37;;;20.30;83.80;;;;;;5032839;28;20453;-88
2023/05/13 10:02:23;;;;;;;2.57;2.37;;;20.50;81.90;;;;;;5032734;28;20414;-88
2023/05/13 10:04:50;;;;;;;4.40;2.27;;;20.50;82.30;;;;;;5034039;28;20688;-88
2023/05/13 10:07:24;;;;;;;2.13;1.90;;;20.50;82.50;;;;;;5031733;28;20419;-89
2023/05/13 10:09:52;;;;;;;2.73;1.80;;;20.60;83.40;;;;;;5032821;28;20452;-88
2023/05/13 10:12:23;;;;;;;2.90;1.50;;;20.60;81.80;;;;;;5033091;28;20427;-88
2023/05/13 10:14:52;;;;;;;3.27;2.60;;;20.70;81.70;;;;;;5033473;28;20845;-89
2023/05/13 10:17:23;;;;;;;2.73;2.53;;;20.70;81.40;;;;;;5031517;28;20433;-90
2023/05/13 10:19:50;;;;;;;2.90;1.90;;;20.70;81.90;;;;;;5033341;28;20469;-88
2023/05/13 10:22:26;;;;;;;2.33;1.80;;;20.70;79.90;;;;;;5033167;28;20913;-88
2023/05/13 10:24:54;;;;;;;1.80;1.63;;;20.60;81.30;;;;;;5028384;28;20434;-88
2023/05/13 10:27:21;;;;;;;4.43;1.90;;;20.70;81.30;;;;;;5029412;28;20458;-88
2023/05/13 10:29:50;;;;;;;2.03;1.80;;;20.80;81.40;;;;;;5033566;28;20446;-89
2023/05/13 10:32:15;;;;;;;4.80;2.80;;;20.80;79.70;;;;;;5033167;28;20834;-88
2023/05/13 10:34:42;;;;;;;7.00;2.60;;;20.80;79.20;;;;;;5032271;28;20544;-88
2023/05/13 10:37:44;;;;;;;5.50;2.57;;;20.60;79.40;;;;;;5027264;28;20230;-89
2023/05/13 10:40:43;;;;;;;2.30;1.73;;;20.70;80.80;;;;;;5031053;28;20437;-88
2023/05/13 10:43:16;;;;;;;2.60;1.90;;;20.80;82.10;;;;;;5029092;28;20426;-89
2023/05/13 10:45:56;;;;;;;4.03;3.03;;;21.00;78.90;;;;;;5025755;28;20448;-88
2023/05/13 10:48:22;;;;;;;2.00;1.90;;;21.00;80.00;;;;;;5030276;28;20758;-89
2023/05/13 10:50:56;;;;;;;1.70;1.60;;;21.00;78.50;;;;;;5040227;22;20523;-88
2023/05/13 10:53:24;;;;;;;3.10;1.97;;;21.00;79.10;;;;;;5018746;28;20217;-88
2023/05/13 10:55:56;;;;;;;2.80;2.63;;;21.20;79.20;;;;;;5018576;28;20459;-88
2023/05/13 10:58:28;;;;;;;3.20;2.40;;;21.20;79.20;;;;;;5024947;28;20430;-88
2023/05/13 11:01:10;;;;;;;3.93;2.17;;;21.30;79.60;;;;;;5023724;28;20436;-88
2023/05/13 11:03:39;;;;;;;1.97;1.67;;;21.40;79.80;;;;;;5014629;28;20424;-88
2023/05/13 11:06:15;;;;;;;2.97;2.23;;;21.60;81.20;;;;;;5018280;28;20500;-87
2023/05/13 11:08:45;;;;;;;4.77;2.60;;;21.90;79.80;;;;;;5012343;28;20811;-88
2023/05/13 11:11:25;;;;;;;3.10;2.23;;;21.90;78.00;;;;;;5010669;28;20978;-87
2023/05/13 11:14:19;;;;;;;1.77;1.67;;;21.90;78.50;;;;;;5011186;28;20455;-89
2023/05/13 11:16:47;;;;;;;3.27;2.23;;;22.00;78.80;;;;;;5011508;28;20419;-88
2023/05/13 11:19:27;;;;;;;1.97;1.87;;;22.20;79.70;;;;;;5030788;28;20408;-88
2023/05/13 11:22:07;;;;;;;4.00;2.00;;;22.30;79.00;;;;;;5005391;28;20422;-88
2023/05/13 11:24:32;;;;;;;2.83;2.63;;;22.30;77.80;;;;;;5022590;28;20442;-88
2023/05/13 11:27:10;;;;;;;3.20;2.60;;;22.30;78.30;;;;;;5014943;28;20946;-89
2023/05/13 11:29:37;;;;;;;8.70;2.27;;;22.40;75.90;;;;;;5005948;28;20282;-87
2023/05/13 11:32:04;;;;;;;2.10;1.97;;;22.20;77.00;;;;;;5015018;28;20473;-88
2023/05/13 11:34:31;;;;;;;2.90;2.40;;;21.90;76.40;;;;;;5018628;28;20501;-88
2023/05/13 11:37:07;;;;;;;3.70;2.20;;;21.70;78.30;;;;;;5003038;28;20417;-89
2023/05/13 11:39:33;;;;;;;2.47;2.27;;;21.70;77.60;;;;;;5018411;28;20419;-89
2023/05/13 11:42:01;;;;;;;2.27;1.87;;;21.80;78.60;;;;;;5016137;28;20442;-89
2023/05/13 11:44:27;;;;;;;2.13;2.00;;;22.00;77.00;;;;;;5023774;28;20189;-89
2023/05/13 11:46:55;;;;;;;1.87;1.87;;;22.20;77.40;;;;;;5025155;28;20918;-89
2023/05/13 11:49:45;;;;;;;1.83;1.53;;;22.30;78.20;;;;;;5019373;28;20185;-89
2023/05/13 11:52:16;;;;;;;2.50;2.30;;;22.60;77.90;;;;;;5016979;28;20478;-88
2023/05/13 11:54:50;;;;;;;2.10;1.53;;;22.90;77.40;;;;;;5043979;28;20558;-87
2023/05/13 11:57:21;;;;;;;4.50;1.90;;;23.10;76.50;;;;;;5044359;28;20453;-87
2023/05/13 12:00:03;;;;;;;1.60;1.50;;;23.10;75.00;;;;;;5021983;28;20518;-86
2023/05/13 12:02:33;;;;;;;2.13;1.97;;;22.80;75.40;;;;;;5037404;28;20411;-87
2023/05/13 12:05:00;;;;;;;4.40;2.80;;;22.90;77.60;;;;;;5028239;28;20458;-87
2023/05/13 12:07:26;;;;;;;3.97;2.53;;;23.20;75.40;;;;;;5019749;28;20427;-89
2023/05/13 12:09:56;;;;;;;2.63;2.33;;;23.40;74.60;;;;;;5045931;28;20446;-87
2023/05/13 12:12:22;;;;;;;2.00;1.90;;;23.60;76.00;;;;;;5022396;28;20204;-86
2023/05/13 12:14:51;;;;;;;1.67;1.57;;;24.00;72.30;;;;;;5038086;28;20937;-88
2023/05/13 12:17:18;;;;;;;2.00;1.90;;;24.20;74.30;;;;;;5032285;28;20267;-89
2023/05/13 12:20:19;;;;;;;1.87;1.77;;;24.40;73.20;;;;;;5031572;28;20470;-87
2023/05/13 12:22:44;;;;;;;1.90;1.80;;;24.60;73.60;;;;;;5025548;28;20434;-87
2023/05/13 12:25:36;;;;;;;1.90;1.80;;;24.80;73.80;;;;;;5025324;28;21302;-89
2023/05/13 12:28:08;;;;;;;3.50;1.90;;;25.10;73.20;;;;;;5017876;28;20686;-88
2023/05/13 12:30:34;;;;;;;2.67;1.73;;;25.40;72.60;;;;;;5026154;28;20462;-87
2023/05/13 12:33:00;;;;;;;1.87;1.73;;;25.60;71.80;;;;;;5030334;28;20452;-87
2023/05/13 12:35:26;;;;;;;2.43;1.63;;;25.80;71.50;;;;;;5032600;28;20498;-86
2023/05/13 12:38:05;;;;;;;2.77;2.33;;;25.80;71.20;;;;;;5028441;28;20600;-87
2023/05/13 12:40:31;;;;;;;2.60;2.40;;;25.60;71.80;;;;;;5029480;28;20601;-86
2023/05/13 12:43:01;;;;;;;3.87;1.90;;;25.30;71.60;;;;;;5029483;28;20411;-87
2023/05/13 12:45:31;;;;;;;2.00;1.70;;;24.80;70.40;;;;;;5033318;28;20400;-87
2023/05/13 12:47:57;;;;;;;3.10;1.90;;;24.10;71.10;;;;;;5031442;28;20439;-87
2023/05/13 12:50:23;;;;;;;3.07;2.50;;;23.60;72.20;;;;;;5031568;28;20473;-87